ilmateenistus.ee keskkonnaagentuur.ee
EETN Tallinna lennuväli
FTEO31 EETN 210500
TAF EETN 210530Z 2106/2206 32010KT CAVOK BECMG 2118/2120 BKN015
    PROB40 TEMPO 2118/2206 1500 SN BR TEMPO 2120/2206 BKN003 BKN010 BECMG
    2120/2122 25012KT=

METAR EETN 210550Z 31009KT CAVOK 00/M01 Q1019 R08/35//95 NOSIG=
Tallinna lennuväli
EEKA Kärdla lennuväli
FCEO32 EETN 210500
TAF EEKA 210500Z 2106/2112 32010KT CAVOK=

METAR EEKA 210550Z 31006KT CAVOK 01/01 Q1022=
Kärdla lennuväli
EEKE Kuressaare lennuväli
METAR EEKE 210550Z AUTO 30004KT 9999NDV FEW009 00/00 Q1022=
Kuressaare lennuväli
EEPU Pärnu lennuväli
METAR EEPU 210550Z 29007KT 9999 BKN006 00/M01 Q1020=
Pärnu lennuväli
EETU Tartu lennuväli
METAR EETU 210550Z AUTO 28010KT 9999 FEW011/// M01/M03 Q1018=
Tartu lennuväli